sensor_id;sensor_type;location;lat;lon;timestamp;temperature;humidity
52889;DHT22;41413;52.770;6.892;2022-09-09T00:04:15;14.80;99.90
52889;DHT22;41413;52.770;6.892;2022-09-09T00:06:50;14.70;99.90
52889;DHT22;41413;52.770;6.892;2022-09-09T00:09:23;14.80;99.90
52889;DHT22;41413;52.770;6.892;2022-09-09T00:11:54;14.80;99.90
52889;DHT22;41413;52.770;6.892;2022-09-09T00:14:42;14.70;99.90
52889;DHT22;41413;52.770;6.892;2022-09-09T00:23:04;14.70;99.90
52889;DHT22;41413;52.770;6.892;2022-09-09T00:28:44;14.70;99.90
52889;DHT22;41413;52.770;6.892;2022-09-09T00:31:16;14.70;99.90
52889;DHT22;41413;52.770;6.892;2022-09-09T00:33:46;14.60;99.90
52889;DHT22;41413;52.770;6.892;2022-09-09T00:36:16;14.50;99.90
52889;DHT22;41413;52.770;6.892;2022-09-09T00:38:53;14.60;99.90
52889;DHT22;41413;52.770;6.892;2022-09-09T00:44:25;14.50;99.90
52889;DHT22;41413;52.770;6.892;2022-09-09T00:47:24;14.50;99.90
52889;DHT22;41413;52.770;6.892;2022-09-09T00:50:45;14.50;99.90
52889;DHT22;41413;52.770;6.892;2022-09-09T00:56:15;14.60;99.90
52889;DHT22;41413;52.770;6.892;2022-09-09T01:01:38;14.60;99.90
52889;DHT22;41413;52.770;6.892;2022-09-09T01:04:12;14.60;99.90
52889;DHT22;41413;52.770;6.892;2022-09-09T01:06:43;14.60;99.90
52889;DHT22;41413;52.770;6.892;2022-09-09T01:09:32;14.60;99.90
52889;DHT22;41413;52.770;6.892;2022-09-09T01:12:28;14.70;99.90
52889;DHT22;41413;52.770;6.892;2022-09-09T01:15:15;14.70;99.90
52889;DHT22;41413;52.770;6.892;2022-09-09T01:18:04;14.80;99.90
52889;DHT22;41413;52.770;6.892;2022-09-09T01:23:38;14.80;99.90
52889;DHT22;41413;52.770;6.892;2022-09-09T01:26:18;14.80;99.90
52889;DHT22;41413;52.770;6.892;2022-09-09T01:28:47;14.80;99.90
52889;DHT22;41413;52.770;6.892;2022-09-09T01:31:53;14.80;99.90
52889;DHT22;41413;52.770;6.892;2022-09-09T01:34:21;14.80;99.90
52889;DHT22;41413;52.770;6.892;2022-09-09T01:37:08;14.80;99.90
52889;DHT22;41413;52.770;6.892;2022-09-09T01:39:38;14.80;99.90
52889;DHT22;41413;52.770;6.892;2022-09-09T01:42:07;14.80;99.90
52889;DHT22;41413;52.770;6.892;2022-09-09T01:44:36;14.90;99.90
52889;DHT22;41413;52.770;6.892;2022-09-09T01:47:03;14.80;99.90
52889;DHT22;41413;52.770;6.892;2022-09-09T01:49:30;14.80;99.90
52889;DHT22;41413;52.770;6.892;2022-09-09T01:51:59;14.80;99.90
52889;DHT22;41413;52.770;6.892;2022-09-09T01:54:29;14.80;99.90
52889;DHT22;41413;52.770;6.892;2022-09-09T01:57:15;14.80;99.90
52889;DHT22;41413;52.770;6.892;2022-09-09T02:05:11;14.70;99.90
52889;DHT22;41413;52.770;6.892;2022-09-09T02:07:40;14.70;99.90
52889;DHT22;41413;52.770;6.892;2022-09-09T02:10:18;14.70;99.90
52889;DHT22;41413;52.770;6.892;2022-09-09T02:12:49;14.80;99.90
52889;DHT22;41413;52.770;6.892;2022-09-09T02:15:34;14.70;99.90
52889;DHT22;41413;52.770;6.892;2022-09-09T02:18:06;14.70;99.90
52889;DHT22;41413;52.770;6.892;2022-09-09T02:20:37;14.70;99.90
52889;DHT22;41413;52.770;6.892;2022-09-09T02:23:05;14.70;99.90
52889;DHT22;41413;52.770;6.892;2022-09-09T02:25:35;14.60;99.90
52889;DHT22;41413;52.770;6.892;2022-09-09T02:28:06;14.60;99.90
52889;DHT22;41413;52.770;6.892;2022-09-09T02:30:35;14.70;99.90
52889;DHT22;41413;52.770;6.892;2022-09-09T02:33:04;14.70;99.90
52889;DHT22;41413;52.770;6.892;2022-09-09T02:35:34;14.70;99.90
52889;DHT22;41413;52.770;6.892;2022-09-09T02:38:07;14.70;99.90
52889;DHT22;41413;52.770;6.892;2022-09-09T02:40:34;14.70;99.90
52889;DHT22;41413;52.770;6.892;2022-09-09T02:43:01;14.70;99.90
52889;DHT22;41413;52.770;6.892;2022-09-09T02:45:41;14.70;99.90
52889;DHT22;41413;52.770;6.892;2022-09-09T02:48:16;14.70;99.90
52889;DHT22;41413;52.770;6.892;2022-09-09T02:51:00;14.60;99.90
52889;DHT22;41413;52.770;6.892;2022-09-09T02:53:53;14.70;99.90
52889;DHT22;41413;52.770;6.892;2022-09-09T02:56:23;14.60;99.90
52889;DHT22;41413;52.770;6.892;2022-09-09T02:58:51;14.70;99.90
52889;DHT22;41413;52.770;6.892;2022-09-09T03:01:18;14.70;99.90
52889;DHT22;41413;52.770;6.892;2022-09-09T03:03:45;14.60;99.90
52889;DHT22;41413;52.770;6.892;2022-09-09T03:06:12;14.60;99.90
52889;DHT22;41413;52.770;6.892;2022-09-09T03:08:40;14.60;99.90
52889;DHT22;41413;52.770;6.892;2022-09-09T03:11:15;14.60;99.90
52889;DHT22;41413;52.770;6.892;2022-09-09T03:13:42;14.60;99.90
52889;DHT22;41413;52.770;6.892;2022-09-09T03:16:09;14.60;99.90
52889;DHT22;41413;52.770;6.892;2022-09-09T03:18:35;14.60;99.90
52889;DHT22;41413;52.770;6.892;2022-09-09T03:21:02;14.50;99.90
52889;DHT22;41413;52.770;6.892;2022-09-09T03:23:29;14.50;99.90
52889;DHT22;41413;52.770;6.892;2022-09-09T03:25:55;14.50;99.90
52889;DHT22;41413;52.770;6.892;2022-09-09T03:28:25;14.50;99.90
52889;DHT22;41413;52.770;6.892;2022-09-09T03:31:04;14.50;99.90
52889;DHT22;41413;52.770;6.892;2022-09-09T03:33:31;14.50;99.90
52889;DHT22;41413;52.770;6.892;2022-09-09T03:35:58;14.50;99.90
52889;DHT22;41413;52.770;6.892;2022-09-09T03:38:25;14.40;99.90
52889;DHT22;41413;52.770;6.892;2022-09-09T03:40:53;14.40;99.90
52889;DHT22;41413;52.770;6.892;2022-09-09T03:43:22;14.40;99.90
52889;DHT22;41413;52.770;6.892;2022-09-09T03:45:50;14.40;99.90
52889;DHT22;41413;52.770;6.892;2022-09-09T03:48:17;14.40;99.90
52889;DHT22;41413;52.770;6.892;2022-09-09T03:50:49;14.40;99.90
52889;DHT22;41413;52.770;6.892;2022-09-09T03:53:17;14.40;99.90
52889;DHT22;41413;52.770;6.892;2022-09-09T03:55:47;14.40;99.90
52889;DHT22;41413;52.770;6.892;2022-09-09T03:58:14;14.40;99.90
52889;DHT22;41413;52.770;6.892;2022-09-09T04:00:42;14.40;99.90
52889;DHT22;41413;52.770;6.892;2022-09-09T04:03:12;14.40;99.90
52889;DHT22;41413;52.770;6.892;2022-09-09T04:05:41;14.40;99.90
52889;DHT22;41413;52.770;6.892;2022-09-09T04:08:08;14.40;99.90
52889;DHT22;41413;52.770;6.892;2022-09-09T04:10:35;14.40;99.90
52889;DHT22;41413;52.770;6.892;2022-09-09T04:13:05;14.40;99.90
52889;DHT22;41413;52.770;6.892;2022-09-09T04:15:32;14.40;99.90
52889;DHT22;41413;52.770;6.892;2022-09-09T04:17:59;14.40;99.90
52889;DHT22;41413;52.770;6.892;2022-09-09T04:20:27;14.50;99.90
52889;DHT22;41413;52.770;6.892;2022-09-09T04:22:53;14.50;99.90
52889;DHT22;41413;52.770;6.892;2022-09-09T04:25:20;14.40;99.90
52889;DHT22;41413;52.770;6.892;2022-09-09T04:27:47;14.40;99.90
52889;DHT22;41413;52.770;6.892;2022-09-09T04:30:14;14.40;99.90
52889;DHT22;41413;52.770;6.892;2022-09-09T04:32:40;14.40;99.90
52889;DHT22;41413;52.770;6.892;2022-09-09T04:35:07;14.40;99.90
52889;DHT22;41413;52.770;6.892;2022-09-09T04:37:34;14.40;99.90
52889;DHT22;41413;52.770;6.892;2022-09-09T04:40:01;14.50;99.90
52889;DHT22;41413;52.770;6.892;2022-09-09T04:42:29;14.40;99.90
52889;DHT22;41413;52.770;6.892;2022-09-09T04:44:55;14.40;99.90
52889;DHT22;41413;52.770;6.892;2022-09-09T04:47:22;14.40;99.90
52889;DHT22;41413;52.770;6.892;2022-09-09T04:49:48;14.40;99.90
52889;DHT22;41413;52.770;6.892;2022-09-09T04:52:16;14.40;99.90
52889;DHT22;41413;52.770;6.892;2022-09-09T04:54:43;14.40;99.90
52889;DHT22;41413;52.770;6.892;2022-09-09T04:57:11;14.40;99.90
52889;DHT22;41413;52.770;6.892;2022-09-09T04:59:44;14.30;99.90
52889;DHT22;41413;52.770;6.892;2022-09-09T05:02:10;14.40;99.90
52889;DHT22;41413;52.770;6.892;2022-09-09T05:04:37;14.30;99.90
52889;DHT22;41413;52.770;6.892;2022-09-09T05:07:04;14.30;99.90
52889;DHT22;41413;52.770;6.892;2022-09-09T05:09:31;14.30;99.90
52889;DHT22;41413;52.770;6.892;2022-09-09T05:11:57;14.30;99.90
52889;DHT22;41413;52.770;6.892;2022-09-09T05:14:24;14.30;99.90
52889;DHT22;41413;52.770;6.892;2022-09-09T05:16:51;14.30;99.90
52889;DHT22;41413;52.770;6.892;2022-09-09T05:19:18;14.30;99.90
52889;DHT22;41413;52.770;6.892;2022-09-09T05:21:46;14.30;99.90
52889;DHT22;41413;52.770;6.892;2022-09-09T05:24:12;14.30;99.90
52889;DHT22;41413;52.770;6.892;2022-09-09T05:26:39;14.30;99.90
52889;DHT22;41413;52.770;6.892;2022-09-09T05:29:06;14.30;99.90
52889;DHT22;41413;52.770;6.892;2022-09-09T05:31:33;14.30;99.90
52889;DHT22;41413;52.770;6.892;2022-09-09T05:34:00;14.30;99.90
52889;DHT22;41413;52.770;6.892;2022-09-09T05:36:26;14.20;99.90
52889;DHT22;41413;52.770;6.892;2022-09-09T05:38:53;14.20;99.90
52889;DHT22;41413;52.770;6.892;2022-09-09T05:41:20;14.10;99.90
52889;DHT22;41413;52.770;6.892;2022-09-09T05:43:47;14.20;99.90
52889;DHT22;41413;52.770;6.892;2022-09-09T05:46:17;14.20;99.90
52889;DHT22;41413;52.770;6.892;2022-09-09T05:48:46;14.10;99.90
52889;DHT22;41413;52.770;6.892;2022-09-09T05:51:24;14.20;99.90
52889;DHT22;41413;52.770;6.892;2022-09-09T05:53:51;14.20;99.90
52889;DHT22;41413;52.770;6.892;2022-09-09T05:56:19;14.20;99.90
52889;DHT22;41413;52.770;6.892;2022-09-09T05:58:46;14.30;99.90
52889;DHT22;41413;52.770;6.892;2022-09-09T06:03:47;14.30;99.90
52889;DHT22;41413;52.770;6.892;2022-09-09T06:06:17;14.40;99.90
52889;DHT22;41413;52.770;6.892;2022-09-09T06:08:44;14.40;99.90
52889;DHT22;41413;52.770;6.892;2022-09-09T06:11:14;14.40;99.90
52889;DHT22;41413;52.770;6.892;2022-09-09T06:13:41;14.40;99.90
52889;DHT22;41413;52.770;6.892;2022-09-09T06:16:10;14.40;99.90
52889;DHT22;41413;52.770;6.892;2022-09-09T06:18:38;14.40;99.90
52889;DHT22;41413;52.770;6.892;2022-09-09T06:21:08;14.50;99.90
52889;DHT22;41413;52.770;6.892;2022-09-09T06:23:35;14.50;99.90
52889;DHT22;41413;52.770;6.892;2022-09-09T06:26:07;14.60;99.90
52889;DHT22;41413;52.770;6.892;2022-09-09T06:28:36;14.60;99.90
52889;DHT22;41413;52.770;6.892;2022-09-09T06:31:06;14.60;99.90
52889;DHT22;41413;52.770;6.892;2022-09-09T06:33:38;14.60;99.90
52889;DHT22;41413;52.770;6.892;2022-09-09T06:36:14;14.60;99.90
52889;DHT22;41413;52.770;6.892;2022-09-09T06:38:42;14.60;99.90
52889;DHT22;41413;52.770;6.892;2022-09-09T06:41:13;14.60;99.90
52889;DHT22;41413;52.770;6.892;2022-09-09T06:43:40;14.60;99.90
52889;DHT22;41413;52.770;6.892;2022-09-09T06:46:18;14.70;99.90
52889;DHT22;41413;52.770;6.892;2022-09-09T06:48:45;14.60;99.90
52889;DHT22;41413;52.770;6.892;2022-09-09T06:51:18;14.60;99.90
52889;DHT22;41413;52.770;6.892;2022-09-09T06:53:46;14.60;99.90
52889;DHT22;41413;52.770;6.892;2022-09-09T06:56:33;14.60;99.90
52889;DHT22;41413;52.770;6.892;2022-09-09T06:59:03;14.60;99.90
52889;DHT22;41413;52.770;6.892;2022-09-09T07:01:32;14.60;99.90
52889;DHT22;41413;52.770;6.892;2022-09-09T07:04:00;14.70;99.90
52889;DHT22;41413;52.770;6.892;2022-09-09T07:06:33;14.80;99.90
52889;DHT22;41413;52.770;6.892;2022-09-09T07:09:04;14.70;99.90
52889;DHT22;41413;52.770;6.892;2022-09-09T07:11:33;14.80;99.90
52889;DHT22;41413;52.770;6.892;2022-09-09T07:14:01;14.90;99.90
52889;DHT22;41413;52.770;6.892;2022-09-09T07:16:28;15.00;99.90
52889;DHT22;41413;52.770;6.892;2022-09-09T07:18:55;15.10;99.90
52889;DHT22;41413;52.770;6.892;2022-09-09T07:21:29;15.10;99.90
52889;DHT22;41413;52.770;6.892;2022-09-09T07:23:56;15.30;99.90
52889;DHT22;41413;52.770;6.892;2022-09-09T07:26:28;15.20;99.90
52889;DHT22;41413;52.770;6.892;2022-09-09T07:28:56;15.20;99.90
52889;DHT22;41413;52.770;6.892;2022-09-09T07:31:31;15.30;99.90
52889;DHT22;41413;52.770;6.892;2022-09-09T07:33:59;15.40;99.90
52889;DHT22;41413;52.770;6.892;2022-09-09T07:36:35;15.50;99.90
52889;DHT22;41413;52.770;6.892;2022-09-09T07:39:09;15.50;99.90
52889;DHT22;41413;52.770;6.892;2022-09-09T07:41:39;15.60;99.90
52889;DHT22;41413;52.770;6.892;2022-09-09T07:44:14;15.60;99.90
52889;DHT22;41413;52.770;6.892;2022-09-09T07:46:41;15.60;99.90
52889;DHT22;41413;52.770;6.892;2022-09-09T07:49:09;15.70;99.90
52889;DHT22;41413;52.770;6.892;2022-09-09T07:51:38;15.70;99.90
52889;DHT22;41413;52.770;6.892;2022-09-09T07:54:09;15.90;99.90
52889;DHT22;41413;52.770;6.892;2022-09-09T07:56:37;16.10;99.90
52889;DHT22;41413;52.770;6.892;2022-09-09T07:59:06;16.50;99.90
52889;DHT22;41413;52.770;6.892;2022-09-09T08:01:36;16.90;99.90
52889;DHT22;41413;52.770;6.892;2022-09-09T08:04:17;17.30;99.90
52889;DHT22;41413;52.770;6.892;2022-09-09T08:06:46;17.70;99.90
52889;DHT22;41413;52.770;6.892;2022-09-09T08:09:14;18.60;99.90
52889;DHT22;41413;52.770;6.892;2022-09-09T08:11:42;19.00;99.90
52889;DHT22;41413;52.770;6.892;2022-09-09T08:14:10;19.30;99.90
52889;DHT22;41413;52.770;6.892;2022-09-09T08:16:43;19.10;99.90
52889;DHT22;41413;52.770;6.892;2022-09-09T08:19:10;19.00;99.90
52889;DHT22;41413;52.770;6.892;2022-09-09T08:21:39;19.30;99.90
52889;DHT22;41413;52.770;6.892;2022-09-09T08:24:07;19.80;99.90
52889;DHT22;41413;52.770;6.892;2022-09-09T08:26:42;20.40;99.90
52889;DHT22;41413;52.770;6.892;2022-09-09T08:29:11;20.70;99.90
52889;DHT22;41413;52.770;6.892;2022-09-09T08:31:40;20.30;99.90
52889;DHT22;41413;52.770;6.892;2022-09-09T08:34:07;20.00;99.90
52889;DHT22;41413;52.770;6.892;2022-09-09T08:36:38;19.80;99.90
52889;DHT22;41413;52.770;6.892;2022-09-09T08:39:06;19.50;99.90
52889;DHT22;41413;52.770;6.892;2022-09-09T08:55:54;18.80;99.90
52889;DHT22;41413;52.770;6.892;2022-09-09T08:58:26;18.70;99.90
52889;DHT22;41413;52.770;6.892;2022-09-09T09:09:10;19.40;99.90
52889;DHT22;41413;52.770;6.892;2022-09-09T09:11:39;19.20;99.90
52889;DHT22;41413;52.770;6.892;2022-09-09T09:16:56;18.90;99.90
52889;DHT22;41413;52.770;6.892;2022-09-09T09:19:24;18.70;99.90
52889;DHT22;41413;52.770;6.892;2022-09-09T09:22:21;18.60;99.90
52889;DHT22;41413;52.770;6.892;2022-09-09T09:24:52;18.70;99.90
52889;DHT22;41413;52.770;6.892;2022-09-09T09:27:42;18.80;99.90
52889;DHT22;41413;52.770;6.892;2022-09-09T09:30:22;19.00;99.90
52889;DHT22;41413;52.770;6.892;2022-09-09T09:33:02;19.10;99.90
52889;DHT22;41413;52.770;6.892;2022-09-09T09:35:30;19.20;99.90
52889;DHT22;41413;52.770;6.892;2022-09-09T09:37:57;19.20;99.90
52889;DHT22;41413;52.770;6.892;2022-09-09T09:41:10;19.00;99.90
52889;DHT22;41413;52.770;6.892;2022-09-09T09:43:40;19.00;99.90
52889;DHT22;41413;52.770;6.892;2022-09-09T09:46:23;19.20;99.90
52889;DHT22;41413;52.770;6.892;2022-09-09T09:49:05;19.50;99.90
52889;DHT22;41413;52.770;6.892;2022-09-09T09:51:35;20.00;99.90
52889;DHT22;41413;52.770;6.892;2022-09-09T09:54:26;20.40;99.90
52889;DHT22;41413;52.770;6.892;2022-09-09T09:56:54;20.40;99.90
52889;DHT22;41413;52.770;6.892;2022-09-09T09:59:33;20.50;99.90
52889;DHT22;41413;52.770;6.892;2022-09-09T10:02:14;20.60;99.90
52889;DHT22;41413;52.770;6.892;2022-09-09T10:04:42;20.70;99.90
52889;DHT22;41413;52.770;6.892;2022-09-09T10:07:18;20.70;99.90
52889;DHT22;41413;52.770;6.892;2022-09-09T10:09:45;20.70;99.90
52889;DHT22;41413;52.770;6.892;2022-09-09T10:12:52;20.40;99.90
52889;DHT22;41413;52.770;6.892;2022-09-09T10:15:34;20.10;99.90
52889;DHT22;41413;52.770;6.892;2022-09-09T10:22:01;20.30;99.90
52889;DHT22;41413;52.770;6.892;2022-09-09T10:30:23;20.10;99.90
52889;DHT22;41413;52.770;6.892;2022-09-09T10:33:05;20.10;99.90
52889;DHT22;41413;52.770;6.892;2022-09-09T10:36:03;19.90;99.90
52889;DHT22;41413;52.770;6.892;2022-09-09T10:38:41;20.20;99.90
52889;DHT22;41413;52.770;6.892;2022-09-09T10:41:18;20.60;99.90
52889;DHT22;41413;52.770;6.892;2022-09-09T10:44:12;20.80;99.90
52889;DHT22;41413;52.770;6.892;2022-09-09T10:49:30;20.70;99.90
52889;DHT22;41413;52.770;6.892;2022-09-09T10:57:12;21.10;99.90
52889;DHT22;41413;52.770;6.892;2022-09-09T10:59:46;20.90;99.90
52889;DHT22;41413;52.770;6.892;2022-09-09T11:02:26;20.80;99.90
52889;DHT22;41413;52.770;6.892;2022-09-09T11:04:57;20.70;99.90
52889;DHT22;41413;52.770;6.892;2022-09-09T11:07:35;20.80;99.90
52889;DHT22;41413;52.770;6.892;2022-09-09T11:10:29;20.70;99.90
52889;DHT22;41413;52.770;6.892;2022-09-09T11:12:56;20.60;99.90
52889;DHT22;41413;52.770;6.892;2022-09-09T11:15:38;20.60;99.90
52889;DHT22;41413;52.770;6.892;2022-09-09T11:18:08;20.50;99.90
52889;DHT22;41413;52.770;6.892;2022-09-09T11:20:40;20.70;99.90
52889;DHT22;41413;52.770;6.892;2022-09-09T11:23:20;20.70;99.90
52889;DHT22;41413;52.770;6.892;2022-09-09T11:25:54;20.70;99.90
52889;DHT22;41413;52.770;6.892;2022-09-09T11:31:06;21.00;99.90
52889;DHT22;41413;52.770;6.892;2022-09-09T11:41:40;21.30;99.90
52889;DHT22;41413;52.770;6.892;2022-09-09T11:44:18;21.40;99.90
52889;DHT22;41413;52.770;6.892;2022-09-09T11:46:49;21.50;99.90
52889;DHT22;41413;52.770;6.892;2022-09-09T11:49:43;21.50;99.90
52889;DHT22;41413;52.770;6.892;2022-09-09T11:52:22;21.20;99.90
52889;DHT22;41413;52.770;6.892;2022-09-09T11:54:49;21.20;99.90
52889;DHT22;41413;52.770;6.892;2022-09-09T11:57:37;21.30;99.90
52889;DHT22;41413;52.770;6.892;2022-09-09T12:00:04;21.30;99.90
52889;DHT22;41413;52.770;6.892;2022-09-09T12:02:31;21.20;99.90
52889;DHT22;41413;52.770;6.892;2022-09-09T12:08:01;21.00;99.90
52889;DHT22;41413;52.770;6.892;2022-09-09T12:10:32;21.20;99.90
52889;DHT22;41413;52.770;6.892;2022-09-09T12:13:19;21.40;99.90
52889;DHT22;41413;52.770;6.892;2022-09-09T12:15:57;21.60;99.90
52889;DHT22;41413;52.770;6.892;2022-09-09T12:18:31;21.60;99.90
52889;DHT22;41413;52.770;6.892;2022-09-09T12:21:44;21.70;99.90
52889;DHT22;41413;52.770;6.892;2022-09-09T12:24:13;21.60;99.90
52889;DHT22;41413;52.770;6.892;2022-09-09T12:27:07;21.50;99.90
52889;DHT22;41413;52.770;6.892;2022-09-09T12:29:54;21.20;99.90
52889;DHT22;41413;52.770;6.892;2022-09-09T12:32:26;20.90;99.90
52889;DHT22;41413;52.770;6.892;2022-09-09T12:35:00;20.80;99.90
52889;DHT22;41413;52.770;6.892;2022-09-09T12:37:37;20.80;99.90
52889;DHT22;41413;52.770;6.892;2022-09-09T12:40:25;20.80;99.90
52889;DHT22;41413;52.770;6.892;2022-09-09T12:42:53;20.80;99.90
52889;DHT22;41413;52.770;6.892;2022-09-09T12:45:22;20.70;99.90
52889;DHT22;41413;52.770;6.892;2022-09-09T12:47:55;20.60;99.90
52889;DHT22;41413;52.770;6.892;2022-09-09T12:50:24;20.60;99.90
52889;DHT22;41413;52.770;6.892;2022-09-09T12:52:59;20.70;99.90
52889;DHT22;41413;52.770;6.892;2022-09-09T12:55:32;20.90;99.90
52889;DHT22;41413;52.770;6.892;2022-09-09T12:58:01;21.10;99.90
52889;DHT22;41413;52.770;6.892;2022-09-09T13:00:31;21.40;99.90
52889;DHT22;41413;52.770;6.892;2022-09-09T13:03:01;21.30;99.90
52889;DHT22;41413;52.770;6.892;2022-09-09T13:05:35;21.20;99.90
52889;DHT22;41413;52.770;6.892;2022-09-09T13:08:07;21.10;99.90
52889;DHT22;41413;52.770;6.892;2022-09-09T13:10:50;20.90;99.90
52889;DHT22;41413;52.770;6.892;2022-09-09T13:16:00;20.50;99.90
52889;DHT22;41413;52.770;6.892;2022-09-09T13:18:36;20.30;99.90
52889;DHT22;41413;52.770;6.892;2022-09-09T13:21:04;19.90;99.90
52889;DHT22;41413;52.770;6.892;2022-09-09T13:23:33;19.50;99.90
52889;DHT22;41413;52.770;6.892;2022-09-09T13:26:22;19.20;99.90
52889;DHT22;41413;52.770;6.892;2022-09-09T13:28:50;19.10;99.90
52889;DHT22;41413;52.770;6.892;2022-09-09T13:31:23;19.00;99.90
52889;DHT22;41413;52.770;6.892;2022-09-09T13:33:50;19.00;99.90
52889;DHT22;41413;52.770;6.892;2022-09-09T13:36:28;19.10;99.90
52889;DHT22;41413;52.770;6.892;2022-09-09T13:38:57;19.40;99.90
52889;DHT22;41413;52.770;6.892;2022-09-09T13:41:31;19.50;99.90
52889;DHT22;41413;52.770;6.892;2022-09-09T13:43:59;19.50;99.90
52889;DHT22;41413;52.770;6.892;2022-09-09T13:46:38;19.80;99.90
52889;DHT22;41413;52.770;6.892;2022-09-09T13:51:40;19.60;99.90
52889;DHT22;41413;52.770;6.892;2022-09-09T13:54:10;19.60;99.90
52889;DHT22;41413;52.770;6.892;2022-09-09T13:56:38;19.70;99.90
52889;DHT22;41413;52.770;6.892;2022-09-09T13:59:12;19.70;99.90
52889;DHT22;41413;52.770;6.892;2022-09-09T14:01:39;19.70;99.90
52889;DHT22;41413;52.770;6.892;2022-09-09T14:04:06;19.70;99.90
52889;DHT22;41413;52.770;6.892;2022-09-09T14:06:34;19.60;99.90
52889;DHT22;41413;52.770;6.892;2022-09-09T14:09:04;19.70;99.90
52889;DHT22;41413;52.770;6.892;2022-09-09T14:11:31;19.60;99.90
52889;DHT22;41413;52.770;6.892;2022-09-09T14:13:58;19.40;99.90
52889;DHT22;41413;52.770;6.892;2022-09-09T14:16:24;19.10;99.90
52889;DHT22;41413;52.770;6.892;2022-09-09T14:18:53;18.70;99.90
52889;DHT22;41413;52.770;6.892;2022-09-09T14:21:19;18.50;99.90
52889;DHT22;41413;52.770;6.892;2022-09-09T14:23:46;18.20;99.90
52889;DHT22;41413;52.770;6.892;2022-09-09T14:26:13;18.00;99.90
52889;DHT22;41413;52.770;6.892;2022-09-09T14:28:40;17.80;99.90
52889;DHT22;41413;52.770;6.892;2022-09-09T14:31:24;17.80;99.90
52889;DHT22;41413;52.770;6.892;2022-09-09T14:33:51;17.90;99.90
52889;DHT22;41413;52.770;6.892;2022-09-09T14:36:18;17.70;99.90
52889;DHT22;41413;52.770;6.892;2022-09-09T14:38:45;17.80;99.90
52889;DHT22;41413;52.770;6.892;2022-09-09T14:41:14;17.90;99.90
52889;DHT22;41413;52.770;6.892;2022-09-09T14:43:44;17.80;99.90
52889;DHT22;41413;52.770;6.892;2022-09-09T14:46:13;18.00;99.90
52889;DHT22;41413;52.770;6.892;2022-09-09T14:48:41;18.10;99.90
52889;DHT22;41413;52.770;6.892;2022-09-09T14:51:33;18.30;99.90
52889;DHT22;41413;52.770;6.892;2022-09-09T14:54:00;18.50;99.90
52889;DHT22;41413;52.770;6.892;2022-09-09T14:56:30;18.60;99.90
52889;DHT22;41413;52.770;6.892;2022-09-09T14:58:58;18.60;99.90
52889;DHT22;41413;52.770;6.892;2022-09-09T15:01:27;18.60;99.90
52889;DHT22;41413;52.770;6.892;2022-09-09T15:03:57;18.60;99.90
52889;DHT22;41413;52.770;6.892;2022-09-09T15:06:26;18.60;99.90
52889;DHT22;41413;52.770;6.892;2022-09-09T15:08:54;18.60;99.90
52889;DHT22;41413;52.770;6.892;2022-09-09T15:11:26;18.60;99.90
52889;DHT22;41413;52.770;6.892;2022-09-09T15:13:54;18.60;99.90
52889;DHT22;41413;52.770;6.892;2022-09-09T15:16:23;18.60;99.90
52889;DHT22;41413;52.770;6.892;2022-09-09T15:18:52;18.60;99.90
52889;DHT22;41413;52.770;6.892;2022-09-09T15:21:21;18.70;99.90
52889;DHT22;41413;52.770;6.892;2022-09-09T15:23:48;18.60;99.90
52889;DHT22;41413;52.770;6.892;2022-09-09T15:26:15;18.60;99.90
52889;DHT22;41413;52.770;6.892;2022-09-09T15:28:44;18.60;99.90
52889;DHT22;41413;52.770;6.892;2022-09-09T15:31:19;18.60;99.90
52889;DHT22;41413;52.770;6.892;2022-09-09T15:33:51;18.50;99.90
52889;DHT22;41413;52.770;6.892;2022-09-09T15:36:25;18.50;99.90
52889;DHT22;41413;52.770;6.892;2022-09-09T15:38:52;18.60;99.90
52889;DHT22;41413;52.770;6.892;2022-09-09T15:41:21;18.60;99.90
52889;DHT22;41413;52.770;6.892;2022-09-09T15:43:51;18.60;99.90
52889;DHT22;41413;52.770;6.892;2022-09-09T15:46:33;18.50;99.90
52889;DHT22;41413;52.770;6.892;2022-09-09T15:51:45;18.50;99.90
52889;DHT22;41413;52.770;6.892;2022-09-09T15:54:15;18.50;99.90
52889;DHT22;41413;52.770;6.892;2022-09-09T15:56:44;18.50;99.90
52889;DHT22;41413;52.770;6.892;2022-09-09T15:59:11;18.40;99.90
52889;DHT22;41413;52.770;6.892;2022-09-09T16:01:39;18.40;99.90
52889;DHT22;41413;52.770;6.892;2022-09-09T16:04:09;18.50;99.90
52889;DHT22;41413;52.770;6.892;2022-09-09T16:06:37;18.30;99.90
52889;DHT22;41413;52.770;6.892;2022-09-09T16:09:05;18.40;99.90
52889;DHT22;41413;52.770;6.892;2022-09-09T16:11:34;18.50;99.90
52889;DHT22;41413;52.770;6.892;2022-09-09T16:14:03;18.50;99.90
52889;DHT22;41413;52.770;6.892;2022-09-09T16:16:31;18.60;99.90
52889;DHT22;41413;52.770;6.892;2022-09-09T16:19:02;18.50;99.90
52889;DHT22;41413;52.770;6.892;2022-09-09T16:21:40;18.60;99.90
52889;DHT22;41413;52.770;6.892;2022-09-09T16:24:10;18.50;99.90
52889;DHT22;41413;52.770;6.892;2022-09-09T16:26:39;18.50;99.90
52889;DHT22;41413;52.770;6.892;2022-09-09T16:29:06;18.50;99.90
52889;DHT22;41413;52.770;6.892;2022-09-09T16:31:33;18.40;99.90
52889;DHT22;41413;52.770;6.892;2022-09-09T16:34:00;18.40;99.90
52889;DHT22;41413;52.770;6.892;2022-09-09T16:36:28;18.50;99.90
52889;DHT22;41413;52.770;6.892;2022-09-09T16:39:00;18.40;99.90
52889;DHT22;41413;52.770;6.892;2022-09-09T16:41:29;18.40;99.90
52889;DHT22;41413;52.770;6.892;2022-09-09T16:43:57;18.40;99.90
52889;DHT22;41413;52.770;6.892;2022-09-09T16:46:26;18.40;99.90
52889;DHT22;41413;52.770;6.892;2022-09-09T16:48:56;18.40;99.90
52889;DHT22;41413;52.770;6.892;2022-09-09T16:51:26;18.40;99.90
52889;DHT22;41413;52.770;6.892;2022-09-09T16:53:54;18.40;99.90
52889;DHT22;41413;52.770;6.892;2022-09-09T16:56:26;18.40;99.90
52889;DHT22;41413;52.770;6.892;2022-09-09T16:58:56;18.50;99.90
52889;DHT22;41413;52.770;6.892;2022-09-09T17:01:31;18.40;99.90
52889;DHT22;41413;52.770;6.892;2022-09-09T17:04:02;18.40;99.90
52889;DHT22;41413;52.770;6.892;2022-09-09T17:06:30;18.40;99.90
52889;DHT22;41413;52.770;6.892;2022-09-09T17:08:58;18.40;99.90
52889;DHT22;41413;52.770;6.892;2022-09-09T17:11:26;18.40;99.90
52889;DHT22;41413;52.770;6.892;2022-09-09T17:13:53;18.40;99.90
52889;DHT22;41413;52.770;6.892;2022-09-09T17:16:22;18.30;99.90
52889;DHT22;41413;52.770;6.892;2022-09-09T17:18:51;18.30;99.90
52889;DHT22;41413;52.770;6.892;2022-09-09T17:21:20;18.20;99.90
52889;DHT22;41413;52.770;6.892;2022-09-09T17:23:49;18.10;99.90
52889;DHT22;41413;52.770;6.892;2022-09-09T17:26:18;18.20;99.90
52889;DHT22;41413;52.770;6.892;2022-09-09T17:28:46;18.20;99.90
52889;DHT22;41413;52.770;6.892;2022-09-09T17:31:15;18.20;99.90
52889;DHT22;41413;52.770;6.892;2022-09-09T17:33:44;18.20;99.90
52889;DHT22;41413;52.770;6.892;2022-09-09T17:36:18;18.20;99.90